Latest Weather Observations for Paraburdoo

IDW60801

Issued at 7:05 pm WST Thursday 31 July 2014 (issued every 30 minutes, with the page automatically refreshed every 10 minutes)

About weather observations | Map of weather stations | Latest weather observations for WA | Other Formats
Station Details ID: 007185 Name: PARABURDOO AERO Lat: -23.17 Lon: 117.75 Height: 423.7 m
Data from the previous 72 hours. | See also: Recent months at Paraburdoo
Date/Time
WST
Temp
°C
App
Temp
°C
Dew
Point
Rel
Hum
%
Delta-T
°C
Wind Press
QNH
hPa
Press
MSL
hPa
Rain
since 9 am
mm
Dir
 
Spd
km/h
Gust
km/h
Spd
kts
Gust
kts
31/07:00pm 24.6 20.6 0.2 20 11.5 SSE 11 15 6 8 1019.4 - 0.0
31/06:30pm 24.6 21.4 -0.5 19 11.6 S 6 7 3 4 1019.1 - 0.0
31/06:00pm 25.6 22.2 -0.5 18 12.2 SE 7 11 4 6 1019.0 1018.0 0.0
31/05:30pm 26.6 22.5 -0.4 17 12.8 SSE 11 13 6 7 1018.8 - 0.0
31/05:00pm 27.2 23.0 -0.8 16 13.2 S 11 17 6 9 1018.6 - 0.0
31/04:30pm 27.6 23.8 -0.5 16 13.3 SE 9 15 5 8 1018.6 - 0.0
31/04:00pm 28.0 23.5 -0.1 16 13.5 SSW 13 17 7 9 1018.5 - 0.0
31/03:30pm 28.7 24.9 -0.5 15 14.0 NNE 9 15 5 8 1018.5 - 0.0
31/03:00pm 27.9 24.2 -0.2 16 13.4 SSE 9 17 5 9 1018.8 1017.8 0.0
31/02:30pm 28.1 24.0 -0.1 16 13.5 E 11 17 6 9 1019.0 - 0.0
31/02:00pm 27.9 24.7 0.6 17 13.2 NNE 7 11 4 6 1019.2 - 0.0
31/01:30pm 26.9 23.3 0.6 18 12.7 E 9 13 5 7 1019.7 - 0.0
31/01:00pm 27.1 23.1 0.8 18 12.7 ESE 11 17 6 9 1020.0 - 0.0
31/12:30pm 26.8 22.2 1.3 19 12.4 ESE 15 20 8 11 1020.6 - 0.0
31/12:00pm 26.4 21.5 1.7 20 12.1 ESE 17 24 9 13 1021.1 1020.2 0.0
31/11:30am 25.7 20.8 1.8 21 11.7 ENE 17 20 9 11 1021.7 - 0.0
31/11:00am 25.3 19.7 1.4 21 11.6 ENE 20 28 11 15 1021.9 - 0.0
31/10:30am 25.5 20.6 2.2 22 11.4 ENE 17 22 9 12 1022.2 - 0.0
31/10:00am 23.5 18.2 1.8 24 10.4 E 19 26 10 14 1022.4 - 0.0
31/09:30am 22.1 16.8 1.7 26 9.7 E 19 28 10 15 1022.4 - 0.0
31/09:00am 21.9 16.6 2.1 27 9.4 ENE 19 26 10 14 1022.5 1021.6 0.0
31/08:30am 21.0 15.7 1.8 28 9.1 ENE 19 24 10 13 1022.4 - 0.0
31/08:00am 20.0 15.4 1.4 29 8.6 NE 15 20 8 11 1022.2 - 0.0
31/07:30am 19.1 13.5 1.1 30 8.3 ENE 20 26 11 14 1021.9 - 0.0
31/07:00am 18.8 13.2 0.9 30 8.2 ENE 20 26 11 14 1021.7 - 0.0
31/06:30am 18.4 14.0 0.5 30 8.1 E 13 24 7 13 1021.6 - 0.0
31/06:00am 18.4 14.1 1.0 31 7.9 ESE 13 17 7 9 1021.0 1020.1 0.0
31/05:30am 17.0 14.3 0.6 33 7.3 S 4 11 2 6 1020.8 - 0.0
31/05:00am 17.6 13.6 0.7 32 7.6 SE 11 15 6 8 1020.4 - 0.0
31/04:30am 19.3 15.0 1.3 30 8.3 ESE 13 17 7 9 1020.4 - 0.0
31/04:00am 19.8 16.3 1.3 29 8.6 S 9 15 5 8 1020.4 - 0.0
31/03:30am 19.2 15.7 1.2 30 8.3 ENE 9 13 5 7 1020.1 - 0.0
31/03:00am 18.9 14.6 1.0 30 8.2 ENE 13 17 7 9 1020.1 1019.2 0.0
31/02:30am 19.1 14.4 0.7 29 8.4 ENE 15 19 8 10 1020.1 - 0.0
31/02:00am 20.1 16.2 1.0 28 8.8 ESE 11 15 6 8 1020.0 - 0.0
31/01:30am 20.0 16.1 1.4 29 8.6 ESE 11 13 6 7 1020.2 - 0.0
31/01:00am 20.3 16.0 1.2 28 8.9 ESE 13 17 7 9 1020.3 - 0.0
31/12:30am 21.4 16.8 1.6 27 9.3 ESE 15 19 8 10 1020.3 - 0.0
31/12:00am 21.3 16.6 1.0 26 9.4 SSE 15 20 8 11 1020.2 1019.3 0.0
 
Date/Time
WST
Temp
°C
App
Temp
°C
Dew
Point
Rel
Hum
%
Delta-T
°C
Wind Press
QNH
hPa
Press
MSL
hPa
Rain
since 9 am
mm
Dir
 
Spd
km/h
Gust
km/h
Spd
kts
Gust
kts
30/11:30pm 18.5 14.8 0.2 29 8.2 S 9 13 5 7 1020.3 - 0.0
30/11:00pm 19.2 16.6 0.8 29 8.4 WNW 4 6 2 3 1020.3 - 0.0
30/10:30pm 20.5 17.3 0.9 27 9.1 S 7 11 4 6 1020.4 - 0.0
30/10:00pm 19.1 16.8 0.7 29 8.4 E 2 7 1 4 1020.4 - 0.0
30/09:30pm 19.3 16.2 0.4 28 8.6 NNW 6 7 3 4 1020.3 - 0.0
30/09:00pm 20.1 17.2 1.5 29 8.6 NNW 6 7 3 4 1020.3 1019.4 0.0
30/08:30pm 19.4 17.0 -0.1 27 8.8 SSE 2 6 1 3 1020.1 - 0.0
30/08:00pm 22.0 18.5 1.1 25 9.8 S 9 11 5 6 1019.9 - 0.0
30/07:30pm 22.7 19.2 1.1 24 10.2 SSE 9 11 5 6 1019.7 - 0.0
30/07:00pm 23.8 20.3 1.4 23 10.7 S 9 11 5 6 1019.5 - 0.0
30/06:30pm 25.2 21.3 1.3 21 11.5 SSW 11 15 6 8 1019.3 - 0.0
30/06:00pm 26.5 22.3 1.7 20 12.1 SSW 13 20 7 11 1019.0 1018.0 0.0
30/05:30pm 27.4 22.5 1.8 19 12.6 WSW 17 20 9 11 1019.0 - 0.0
30/05:00pm 28.4 24.5 1.0 17 13.4 WSW 11 17 6 9 1018.8 - 0.0
30/04:30pm 28.5 25.0 1.1 17 13.5 NW 9 13 5 7 1018.5 - 0.0
30/04:00pm 29.0 23.5 0.7 16 13.9 W 19 26 10 14 1018.5 - 0.0
30/03:30pm 29.0 24.3 0.7 16 13.9 W 15 24 8 13 1018.6 - 0.0
30/03:00pm 29.2 23.7 0.8 16 13.9 W 19 26 10 14 1018.8 1017.8 0.0
30/02:30pm 29.3 25.0 0.9 16 14.0 WNW 13 19 7 10 1019.0 - 0.0
30/02:00pm 28.3 24.7 0.9 17 13.4 WNW 9 17 5 9 1019.1 - 0.0
30/01:30pm 29.0 25.2 1.5 17 13.7 W 11 19 6 10 1019.4 - 0.0
30/01:00pm 29.2 23.9 1.7 17 13.7 WNW 19 28 10 15 1019.9 - 0.0
30/12:30pm 28.6 25.1 1.2 17 13.5 NNE 9 19 5 10 1020.4 - 0.0
30/12:00pm 28.5 22.9 1.1 17 13.4 N 20 32 11 17 1020.8 1019.9 0.0
30/11:30am 28.5 23.0 1.9 18 13.3 NNW 20 32 11 17 1021.3 - 0.0
30/11:00am 27.0 22.9 2.1 20 12.3 E 13 20 7 11 1021.6 - 0.0
30/10:30am 25.9 21.7 1.9 21 11.8 E 13 19 7 10 1022.1 - 0.0
30/10:00am 24.7 20.3 2.8 24 10.8 ENE 15 20 8 11 1022.4 - 0.0
30/09:30am 23.2 18.8 2.7 26 10.0 ENE 15 19 8 10 1022.6 - 0.0
30/09:00am 21.6 17.1 2.3 28 9.2 ENE 15 19 8 10 1022.6 1021.7 0.0
30/08:30am 20.0 15.5 1.9 30 8.5 ENE 15 17 8 9 1022.5 - 0.0
30/08:00am 18.0 13.8 1.5 33 7.6 NE 13 17 7 9 1022.4 - 0.0
30/07:30am 15.2 10.1 1.0 38 6.3 NE 17 19 9 10 1022.2 - 0.0
30/07:00am 13.4 8.4 1.1 43 5.4 NE 17 19 9 10 1021.7 - 0.0
30/06:30am 12.7 8.4 0.8 44 5.1 NE 13 15 7 8 1021.6 - 0.0
30/06:00am 12.9 8.1 0.3 42 5.4 NE 15 17 8 9 1021.3 1020.3 0.0
30/05:30am 13.4 8.7 0.8 42 5.5 NE 15 19 8 10 1021.0 - 0.0
30/05:00am 13.9 8.8 0.5 40 5.8 NE 17 20 9 11 1020.7 - 0.0
30/04:30am 13.5 8.7 0.2 40 5.7 NE 15 17 8 9 1020.5 - 0.0
30/04:00am 13.4 9.0 0.4 41 5.6 NE 13 15 7 8 1020.5 - 0.0
30/03:30am 13.9 8.7 0.2 39 5.9 ENE 17 19 9 10 1020.5 - 0.0
30/03:00am 12.8 8.7 -0.1 41 5.4 ENE 11 17 6 9 1020.6 1019.7 0.0
30/02:30am 12.7 8.2 -0.5 40 5.5 NE 13 15 7 8 1020.7 - 0.0
30/02:00am 12.7 8.6 -0.5 40 5.5 NE 11 13 6 7 1020.9 - 0.0
30/01:30am 13.4 10.0 -0.3 39 5.8 NE 7 13 4 7 1020.9 - 0.0
30/01:00am 13.9 9.0 -0.5 37 6.1 NE 15 20 8 11 1021.1 - 0.0
30/12:30am 14.8 11.5 0.3 37 6.3 N 7 9 4 5 1021.1 - 0.0
30/12:00am 14.4 11.3 -0.1 37 6.2 ENE 6 7 3 4 1021.1 1020.2 0.0
 
Date/Time
WST
Temp
°C
App
Temp
°C
Dew
Point
Rel
Hum
%
Delta-T
°C
Wind Press
QNH
hPa
Press
MSL
hPa
Rain
since 9 am
mm
Dir
 
Spd
km/h
Gust
km/h
Spd
kts
Gust
kts
29/11:30pm 14.4 11.5 -0.8 35 6.4 NNE 4 7 2 4 1021.4 - 0.0
29/11:00pm 16.0 12.8 0.6 35 6.8 N 7 11 4 6 1021.6 - 0.0
29/10:30pm 15.9 10.7 0.1 34 6.9 NNE 17 17 9 9 1021.7 - 0.0
29/10:00pm 17.2 13.9 0.4 32 7.5 NNW 7 11 4 6 1021.7 - 0.0
29/09:30pm 16.7 13.3 -0.5 31 7.5 NNE 7 9 4 5 1021.6 - 0.0
29/09:00pm 20.1 18.3 1.5 29 8.6 CALM 0 6 0 3 1021.6 1020.6 0.0
29/08:30pm 20.0 17.3 0.5 27 8.9 SSE 4 9 2 5 1021.4 - 0.0
29/08:00pm 21.3 18.1 1.0 26 9.5 S 7 9 4 5 1021.3 - 0.0
29/07:30pm 22.5 18.9 0.9 24 10.1 S 9 11 5 6 1021.1 - 0.0
29/07:00pm 23.4 19.9 1.1 23 10.6 S 9 11 5 6 1020.9 - 0.0
29/06:30pm 24.3 19.9 0.6 21 11.2 S 13 17 7 9 1020.6 - 0.0
29/06:00pm 25.4 20.7 0.8 20 11.7 SSW 15 24 8 13 1020.3 1019.4 0.0
29/05:30pm 26.5 22.1 0.3 18 12.5 SW 13 19 7 10 1019.9 - 0.0
29/05:00pm 27.8 24.1 -0.3 16 13.4 WSW 9 15 5 8 1019.7 - 0.0
29/04:30pm 28.4 24.4 0.2 16 13.6 NW 11 17 6 9 1019.7 - 0.0
29/04:00pm 27.8 24.1 -0.3 16 13.4 SSW 9 17 5 9 1019.6 - 0.0
29/03:30pm 28.4 24.7 0.2 16 13.6 WNW 9 20 5 11 1019.6 - 0.0
29/03:00pm 27.7 23.2 -0.4 16 13.3 WSW 13 24 7 13 1019.7 1018.8 0.0
29/02:30pm 27.8 24.1 -0.3 16 13.4 S 9 13 5 7 1019.8 - 0.0
29/02:00pm 27.8 23.3 -0.3 16 13.4 ESE 13 20 7 11 1020.0 - 0.0
29/01:30pm 27.5 23.5 0.3 17 13.1 SSE 11 19 6 10 1020.2 - 0.0
29/01:00pm 27.5 23.5 0.3 17 13.1 ENE 11 20 6 11 1020.6 - 0.0
29/12:30pm 27.6 22.4 0.4 17 13.1 ENE 17 22 9 12 1021.1 - 0.0
29/12:00pm 27.1 22.4 0.8 18 12.7 NNE 15 22 8 12 1021.6 1020.6 0.0
29/11:30am 26.6 21.9 1.1 19 12.4 NE 15 20 8 11 1022.0 - 0.0
29/11:00am 25.1 19.6 0.6 20 11.7 NE 19 22 10 12 1022.4 - 0.0
29/10:30am 24.6 18.9 0.8 21 11.3 NE 20 28 11 15 1022.7 - 0.0
29/10:00am 22.9 17.1 0.1 22 10.6 ENE 20 26 11 14 1022.9 - 0.0
29/09:30am 21.8 16.2 -0.2 23 10.0 ENE 19 26 10 14 1023.0 - 0.0
29/09:00am 20.2 15.8 0.6 27 8.9 ENE 13 17 7 9 1023.0 1022.1 0.0
29/08:30am 18.0 14.0 0.2 30 7.9 ENE 11 13 6 7 1023.0 - 0.0
29/08:00am 15.2 11.4 -0.9 33 6.8 NE 9 13 5 7 1022.8 - 0.0
29/07:30am 13.0 9.1 -1.7 36 6.0 NE 9 11 5 6 1022.5 - 0.0
29/07:00am 11.8 8.3 -1.7 39 5.5 NE 7 11 4 6 1022.0 - 0.0
29/06:30am 13.2 9.0 -1.2 37 6.0 NNE 11 17 6 9 1021.7 - 0.0
29/06:00am 10.6 6.2 -2.1 41 5.0 NW 11 15 6 8 1021.6 1020.6 0.0
29/05:30am 10.8 7.2 -2.2 40 5.1 N 7 11 4 6 1021.1 - 0.0
29/05:00am 11.3 6.9 -2.1 39 5.3 NE 11 17 6 9 1021.1 - 0.0
29/04:30am 8.5 4.6 -4.3 40 4.7 E 7 9 4 5 1021.3 - 0.0
29/04:00am 9.6 7.2 -3.3 40 4.9 CALM 0 6 0 3 1021.6 - 0.0
29/03:30am 10.3 6.7 -2.4 41 5.0 NNE 7 11 4 6 1021.6 - 0.0
29/03:00am 9.4 5.2 -3.5 40 4.8 NNE 9 11 5 6 1021.8 1020.9 0.0
29/02:30am 10.0 5.9 -3.0 40 5.0 NE 9 13 5 7 1021.8 - 0.0
29/02:00am 10.5 7.0 -2.5 40 5.1 NNE 6 6 3 3 1021.9 - 0.0
29/01:30am 10.6 6.5 -3.1 38 5.3 NNE 9 11 5 6 1022.1 - 0.0
29/01:00am 10.9 8.1 -3.2 37 5.5 NE 2 7 1 4 1022.0 - 0.0
29/12:30am 11.3 7.6 -3.2 36 5.6 ESE 7 9 4 5 1022.0 - 0.0
29/12:00am 12.1 8.1 -2.5 36 5.8 NE 9 11 5 6 1021.9 1021.0 0.0
 
Date/Time
WST
Temp
°C
App
Temp
°C
Dew
Point
Rel
Hum
%
Delta-T
°C
Wind Press
QNH
hPa
Press
MSL
hPa
Rain
since 9 am
mm
Dir
 
Spd
km/h
Gust
km/h
Spd
kts
Gust
kts
28/11:30pm 12.9 8.9 -2.6 34 6.2 NE 9 11 5 6 1022.0 - 0.0
28/11:00pm 13.4 9.0 -2.5 33 6.4 NNE 11 15 6 8 1022.0 - 0.0
28/10:30pm 13.7 10.1 -2.3 33 6.5 N 7 9 4 5 1021.9 - 0.0
28/10:00pm 14.3 10.3 -2.6 31 6.9 N 9 11 5 6 1021.8 - 0.0
28/09:30pm 15.3 11.8 -2.6 29 7.3 NNE 6 7 3 4 1021.8 - 0.0
28/09:00pm 15.5 11.5 -2.4 29 7.4 ENE 9 9 5 5 1021.6 1020.6 0.0
28/08:30pm 18.1 15.9 -1.7 26 8.5 CALM 0 0 0 0 1021.5 - 0.0
28/08:00pm 19.0 15.4 -2.0 24 9.0 SW 7 9 4 5 1021.4 - 0.0
28/07:30pm 20.0 16.5 -1.2 24 9.4 SW 7 9 4 5 1021.1 - 0.0

Other Formats:

Comma delimited format used in spreadsheet applications
http://www.bom.gov.au/fwo/IDW60801/IDW60801.94316.axf

JavaScript Object Notation format (JSON) in row-major order
http://www.bom.gov.au/fwo/IDW60801/IDW60801.94316.json